sensor_id;sensor_type;location;lat;lon;timestamp;P1;durP1;ratioP1;P2;durP2;ratioP2
18933;SDS011;9599;53.706;10.384;2023-05-27T00:01:33;31.43;;;28.90;;
18933;SDS011;9599;53.706;10.384;2023-05-27T00:04:01;31.17;;;28.80;;
18933;SDS011;9599;53.706;10.384;2023-05-27T00:06:29;33.23;;;30.40;;
18933;SDS011;9599;53.706;10.384;2023-05-27T00:08:59;29.70;;;27.40;;
18933;SDS011;9599;53.706;10.384;2023-05-27T00:11:27;27.37;;;25.10;;
18933;SDS011;9599;53.706;10.384;2023-05-27T00:13:55;27.47;;;25.30;;
18933;SDS011;9599;53.706;10.384;2023-05-27T00:16:23;25.00;;;23.00;;
18933;SDS011;9599;53.706;10.384;2023-05-27T00:18:51;25.47;;;23.63;;
18933;SDS011;9599;53.706;10.384;2023-05-27T00:21:19;24.90;;;23.10;;
18933;SDS011;9599;53.706;10.384;2023-05-27T00:23:50;24.63;;;23.00;;
18933;SDS011;9599;53.706;10.384;2023-05-27T00:26:20;23.83;;;22.10;;
18933;SDS011;9599;53.706;10.384;2023-05-27T00:28:50;22.27;;;20.27;;
18933;SDS011;9599;53.706;10.384;2023-05-27T00:31:18;22.97;;;21.20;;
18933;SDS011;9599;53.706;10.384;2023-05-27T00:33:47;22.80;;;21.27;;
18933;SDS011;9599;53.706;10.384;2023-05-27T00:36:15;21.70;;;19.80;;
18933;SDS011;9599;53.706;10.384;2023-05-27T00:38:43;21.87;;;20.17;;
18933;SDS011;9599;53.706;10.384;2023-05-27T00:41:11;21.70;;;20.00;;
18933;SDS011;9599;53.706;10.384;2023-05-27T00:43:41;22.43;;;20.57;;
18933;SDS011;9599;53.706;10.384;2023-05-27T00:46:09;21.63;;;19.77;;
18933;SDS011;9599;53.706;10.384;2023-05-27T00:48:37;22.23;;;20.17;;
18933;SDS011;9599;53.706;10.384;2023-05-27T00:51:06;21.67;;;19.97;;
18933;SDS011;9599;53.706;10.384;2023-05-27T00:53:35;22.10;;;20.40;;
18933;SDS011;9599;53.706;10.384;2023-05-27T00:56:07;22.20;;;20.43;;
18933;SDS011;9599;53.706;10.384;2023-05-27T00:58:35;22.93;;;21.00;;
18933;SDS011;9599;53.706;10.384;2023-05-27T01:01:05;23.43;;;21.67;;
18933;SDS011;9599;53.706;10.384;2023-05-27T01:03:33;24.80;;;22.80;;
18933;SDS011;9599;53.706;10.384;2023-05-27T01:06:05;22.63;;;20.53;;
18933;SDS011;9599;53.706;10.384;2023-05-27T01:08:44;23.33;;;21.33;;
18933;SDS011;9599;53.706;10.384;2023-05-27T01:11:20;22.97;;;21.20;;
18933;SDS011;9599;53.706;10.384;2023-05-27T01:13:55;23.40;;;21.53;;
18933;SDS011;9599;53.706;10.384;2023-05-27T01:16:28;23.73;;;21.67;;
18933;SDS011;9599;53.706;10.384;2023-05-27T01:18:57;24.83;;;22.97;;
18933;SDS011;9599;53.706;10.384;2023-05-27T01:21:29;26.00;;;24.00;;
18933;SDS011;9599;53.706;10.384;2023-05-27T01:24:04;23.57;;;21.53;;
18933;SDS011;9599;53.706;10.384;2023-05-27T01:26:32;24.77;;;22.53;;
18933;SDS011;9599;53.706;10.384;2023-05-27T01:29:00;22.77;;;21.13;;
18933;SDS011;9599;53.706;10.384;2023-05-27T01:31:30;24.00;;;22.17;;
18933;SDS011;9599;53.706;10.384;2023-05-27T01:34:05;24.97;;;23.10;;
18933;SDS011;9599;53.706;10.384;2023-05-27T01:36:36;22.87;;;20.93;;
18933;SDS011;9599;53.706;10.384;2023-05-27T01:39:11;23.67;;;21.70;;
18933;SDS011;9599;53.706;10.384;2023-05-27T01:41:40;24.07;;;22.17;;
18933;SDS011;9599;53.706;10.384;2023-05-27T01:44:12;23.80;;;22.17;;
18933;SDS011;9599;53.706;10.384;2023-05-27T01:46:44;23.20;;;21.50;;
18933;SDS011;9599;53.706;10.384;2023-05-27T01:49:12;25.50;;;23.30;;
18933;SDS011;9599;53.706;10.384;2023-05-27T01:51:40;22.50;;;20.70;;
18933;SDS011;9599;53.706;10.384;2023-05-27T01:54:08;22.10;;;20.40;;
18933;SDS011;9599;53.706;10.384;2023-05-27T01:56:38;22.20;;;20.37;;
18933;SDS011;9599;53.706;10.384;2023-05-27T01:59:06;21.17;;;19.77;;
18933;SDS011;9599;53.706;10.384;2023-05-27T02:01:34;22.83;;;21.23;;
18933;SDS011;9599;53.706;10.384;2023-05-27T02:04:02;25.00;;;22.77;;
18933;SDS011;9599;53.706;10.384;2023-05-27T02:06:30;25.50;;;23.70;;
18933;SDS011;9599;53.706;10.384;2023-05-27T02:08:59;25.00;;;23.33;;
18933;SDS011;9599;53.706;10.384;2023-05-27T02:11:27;23.37;;;21.70;;
18933;SDS011;9599;53.706;10.384;2023-05-27T02:13:56;26.73;;;24.53;;
18933;SDS011;9599;53.706;10.384;2023-05-27T02:16:25;25.83;;;23.60;;
18933;SDS011;9599;53.706;10.384;2023-05-27T02:18:54;25.80;;;24.13;;
18933;SDS011;9599;53.706;10.384;2023-05-27T02:21:24;24.33;;;22.57;;
18933;SDS011;9599;53.706;10.384;2023-05-27T02:23:52;25.50;;;23.60;;
18933;SDS011;9599;53.706;10.384;2023-05-27T02:26:20;22.67;;;20.80;;
18933;SDS011;9599;53.706;10.384;2023-05-27T02:28:48;21.67;;;20.17;;
18933;SDS011;9599;53.706;10.384;2023-05-27T02:31:17;21.93;;;20.30;;
18933;SDS011;9599;53.706;10.384;2023-05-27T02:33:45;23.20;;;21.20;;
18933;SDS011;9599;53.706;10.384;2023-05-27T02:36:13;21.37;;;19.80;;
18933;SDS011;9599;53.706;10.384;2023-05-27T02:38:41;22.13;;;20.53;;
18933;SDS011;9599;53.706;10.384;2023-05-27T02:41:10;21.30;;;19.70;;
18933;SDS011;9599;53.706;10.384;2023-05-27T02:43:38;20.90;;;19.27;;
18933;SDS011;9599;53.706;10.384;2023-05-27T02:46:07;19.93;;;18.50;;
18933;SDS011;9599;53.706;10.384;2023-05-27T02:48:37;20.10;;;18.53;;
18933;SDS011;9599;53.706;10.384;2023-05-27T02:51:05;20.47;;;18.73;;
18933;SDS011;9599;53.706;10.384;2023-05-27T02:53:33;20.17;;;18.53;;
18933;SDS011;9599;53.706;10.384;2023-05-27T02:56:01;20.20;;;18.80;;
18933;SDS011;9599;53.706;10.384;2023-05-27T02:58:29;20.17;;;18.63;;
18933;SDS011;9599;53.706;10.384;2023-05-27T03:00:57;20.90;;;19.13;;
18933;SDS011;9599;53.706;10.384;2023-05-27T03:03:25;21.37;;;19.83;;
18933;SDS011;9599;53.706;10.384;2023-05-27T03:05:54;22.63;;;20.80;;
18933;SDS011;9599;53.706;10.384;2023-05-27T03:08:22;21.30;;;19.50;;
18933;SDS011;9599;53.706;10.384;2023-05-27T03:10:50;23.03;;;21.27;;
18933;SDS011;9599;53.706;10.384;2023-05-27T03:13:18;22.50;;;20.83;;
18933;SDS011;9599;53.706;10.384;2023-05-27T03:15:46;22.70;;;20.77;;
18933;SDS011;9599;53.706;10.384;2023-05-27T03:18:15;22.60;;;20.80;;
18933;SDS011;9599;53.706;10.384;2023-05-27T03:20:43;21.37;;;19.50;;
18933;SDS011;9599;53.706;10.384;2023-05-27T03:23:14;22.43;;;20.73;;
18933;SDS011;9599;53.706;10.384;2023-05-27T03:25:43;22.67;;;20.53;;
18933;SDS011;9599;53.706;10.384;2023-05-27T03:28:13;24.13;;;22.23;;
18933;SDS011;9599;53.706;10.384;2023-05-27T03:30:42;24.17;;;22.47;;
18933;SDS011;9599;53.706;10.384;2023-05-27T03:33:22;23.53;;;21.73;;
18933;SDS011;9599;53.706;10.384;2023-05-27T03:35:51;22.90;;;21.10;;
18933;SDS011;9599;53.706;10.384;2023-05-27T03:38:20;24.27;;;22.37;;
18933;SDS011;9599;53.706;10.384;2023-05-27T03:40:48;23.33;;;21.47;;
18933;SDS011;9599;53.706;10.384;2023-05-27T03:43:16;22.60;;;20.87;;
18933;SDS011;9599;53.706;10.384;2023-05-27T03:45:46;22.40;;;20.97;;
18933;SDS011;9599;53.706;10.384;2023-05-27T03:48:15;22.03;;;20.43;;
18933;SDS011;9599;53.706;10.384;2023-05-27T03:50:43;22.87;;;21.10;;
18933;SDS011;9599;53.706;10.384;2023-05-27T03:53:11;24.03;;;22.33;;
18933;SDS011;9599;53.706;10.384;2023-05-27T03:55:42;22.83;;;21.17;;
18933;SDS011;9599;53.706;10.384;2023-05-27T03:58:11;23.23;;;21.60;;
18933;SDS011;9599;53.706;10.384;2023-05-27T04:00:39;21.57;;;20.07;;
18933;SDS011;9599;53.706;10.384;2023-05-27T04:03:07;21.40;;;19.80;;
18933;SDS011;9599;53.706;10.384;2023-05-27T04:05:36;21.80;;;20.13;;
18933;SDS011;9599;53.706;10.384;2023-05-27T04:08:04;21.23;;;19.43;;
18933;SDS011;9599;53.706;10.384;2023-05-27T04:10:33;20.80;;;19.30;;
18933;SDS011;9599;53.706;10.384;2023-05-27T04:13:02;19.23;;;17.80;;
18933;SDS011;9599;53.706;10.384;2023-05-27T04:15:30;19.90;;;18.17;;
18933;SDS011;9599;53.706;10.384;2023-05-27T04:17:58;20.30;;;18.97;;
18933;SDS011;9599;53.706;10.384;2023-05-27T04:20:28;19.50;;;18.07;;
18933;SDS011;9599;53.706;10.384;2023-05-27T04:23:03;20.60;;;18.90;;
18933;SDS011;9599;53.706;10.384;2023-05-27T04:25:31;20.40;;;18.70;;
18933;SDS011;9599;53.706;10.384;2023-05-27T04:28:05;21.47;;;19.70;;
18933;SDS011;9599;53.706;10.384;2023-05-27T04:30:41;20.23;;;18.73;;
18933;SDS011;9599;53.706;10.384;2023-05-27T04:33:14;21.00;;;19.43;;
18933;SDS011;9599;53.706;10.384;2023-05-27T04:35:43;23.90;;;21.80;;
18933;SDS011;9599;53.706;10.384;2023-05-27T04:38:12;23.33;;;21.33;;
18933;SDS011;9599;53.706;10.384;2023-05-27T04:40:52;23.53;;;21.67;;
18933;SDS011;9599;53.706;10.384;2023-05-27T04:43:46;24.53;;;22.50;;
18933;SDS011;9599;53.706;10.384;2023-05-27T04:46:18;27.30;;;25.03;;
18933;SDS011;9599;53.706;10.384;2023-05-27T04:48:47;28.00;;;25.90;;
18933;SDS011;9599;53.706;10.384;2023-05-27T04:51:17;26.30;;;24.37;;
18933;SDS011;9599;53.706;10.384;2023-05-27T04:53:47;28.27;;;26.27;;
18933;SDS011;9599;53.706;10.384;2023-05-27T04:56:17;25.30;;;23.23;;
18933;SDS011;9599;53.706;10.384;2023-05-27T04:58:47;26.10;;;24.17;;
18933;SDS011;9599;53.706;10.384;2023-05-27T05:01:18;24.43;;;22.27;;
18933;SDS011;9599;53.706;10.384;2023-05-27T05:03:56;25.17;;;22.67;;
18933;SDS011;9599;53.706;10.384;2023-05-27T05:06:44;24.60;;;22.23;;
18933;SDS011;9599;53.706;10.384;2023-05-27T05:09:13;23.77;;;21.83;;
18933;SDS011;9599;53.706;10.384;2023-05-27T05:11:41;23.77;;;21.70;;
18933;SDS011;9599;53.706;10.384;2023-05-27T05:14:12;23.73;;;20.93;;
18933;SDS011;9599;53.706;10.384;2023-05-27T05:16:40;23.77;;;21.83;;
18933;SDS011;9599;53.706;10.384;2023-05-27T05:19:09;26.40;;;24.13;;
18933;SDS011;9599;53.706;10.384;2023-05-27T05:21:38;28.03;;;25.43;;
18933;SDS011;9599;53.706;10.384;2023-05-27T05:24:09;28.13;;;25.67;;
18933;SDS011;9599;53.706;10.384;2023-05-27T05:26:39;26.87;;;24.67;;
18933;SDS011;9599;53.706;10.384;2023-05-27T05:29:08;27.00;;;24.57;;
18933;SDS011;9599;53.706;10.384;2023-05-27T05:31:38;25.73;;;23.47;;
18933;SDS011;9599;53.706;10.384;2023-05-27T05:34:07;25.17;;;22.97;;
18933;SDS011;9599;53.706;10.384;2023-05-27T05:36:36;25.03;;;22.83;;
18933;SDS011;9599;53.706;10.384;2023-05-27T05:39:08;24.03;;;21.93;;
18933;SDS011;9599;53.706;10.384;2023-05-27T05:41:41;24.27;;;22.17;;
18933;SDS011;9599;53.706;10.384;2023-05-27T05:44:09;24.60;;;22.50;;
18933;SDS011;9599;53.706;10.384;2023-05-27T05:46:38;26.00;;;23.53;;
18933;SDS011;9599;53.706;10.384;2023-05-27T05:49:06;24.43;;;22.53;;
18933;SDS011;9599;53.706;10.384;2023-05-27T05:51:42;23.40;;;21.40;;
18933;SDS011;9599;53.706;10.384;2023-05-27T05:54:10;22.50;;;20.53;;
18933;SDS011;9599;53.706;10.384;2023-05-27T05:56:43;20.70;;;18.90;;
18933;SDS011;9599;53.706;10.384;2023-05-27T05:59:12;22.03;;;20.00;;
18933;SDS011;9599;53.706;10.384;2023-05-27T06:01:41;22.20;;;20.23;;
18933;SDS011;9599;53.706;10.384;2023-05-27T06:04:10;21.50;;;19.53;;
18933;SDS011;9599;53.706;10.384;2023-05-27T06:06:41;22.43;;;20.30;;
18933;SDS011;9599;53.706;10.384;2023-05-27T06:09:21;23.57;;;21.07;;
18933;SDS011;9599;53.706;10.384;2023-05-27T06:11:54;22.63;;;20.47;;
18933;SDS011;9599;53.706;10.384;2023-05-27T06:14:22;22.23;;;20.00;;
18933;SDS011;9599;53.706;10.384;2023-05-27T06:16:56;22.37;;;20.00;;
18933;SDS011;9599;53.706;10.384;2023-05-27T06:19:24;22.50;;;20.37;;
18933;SDS011;9599;53.706;10.384;2023-05-27T06:21:52;22.83;;;21.03;;
18933;SDS011;9599;53.706;10.384;2023-05-27T06:24:35;22.30;;;20.27;;
18933;SDS011;9599;53.706;10.384;2023-05-27T06:27:12;23.87;;;22.03;;
18933;SDS011;9599;53.706;10.384;2023-05-27T06:29:42;25.60;;;23.40;;
18933;SDS011;9599;53.706;10.384;2023-05-27T06:32:13;26.07;;;23.83;;
18933;SDS011;9599;53.706;10.384;2023-05-27T06:34:42;24.57;;;22.47;;
18933;SDS011;9599;53.706;10.384;2023-05-27T06:37:10;28.00;;;25.50;;
18933;SDS011;9599;53.706;10.384;2023-05-27T06:39:38;27.13;;;24.63;;
18933;SDS011;9599;53.706;10.384;2023-05-27T06:42:06;28.20;;;24.20;;
18933;SDS011;9599;53.706;10.384;2023-05-27T06:44:57;25.60;;;22.93;;
18933;SDS011;9599;53.706;10.384;2023-05-27T06:47:29;25.57;;;23.33;;
18933;SDS011;9599;53.706;10.384;2023-05-27T06:49:57;25.00;;;22.87;;
18933;SDS011;9599;53.706;10.384;2023-05-27T06:52:25;24.07;;;21.97;;
18933;SDS011;9599;53.706;10.384;2023-05-27T06:55:06;24.40;;;22.33;;
18933;SDS011;9599;53.706;10.384;2023-05-27T06:57:54;26.10;;;23.67;;
18933;SDS011;9599;53.706;10.384;2023-05-27T07:00:30;25.20;;;22.70;;
18933;SDS011;9599;53.706;10.384;2023-05-27T07:03:16;24.33;;;22.33;;
18933;SDS011;9599;53.706;10.384;2023-05-27T07:05:45;24.13;;;22.20;;
18933;SDS011;9599;53.706;10.384;2023-05-27T07:08:13;25.97;;;23.53;;
18933;SDS011;9599;53.706;10.384;2023-05-27T07:10:42;27.17;;;21.43;;
18933;SDS011;9599;53.706;10.384;2023-05-27T07:13:11;25.10;;;23.00;;
18933;SDS011;9599;53.706;10.384;2023-05-27T07:15:45;26.00;;;23.60;;
18933;SDS011;9599;53.706;10.384;2023-05-27T07:18:13;24.30;;;22.23;;
18933;SDS011;9599;53.706;10.384;2023-05-27T07:20:44;23.97;;;21.83;;
18933;SDS011;9599;53.706;10.384;2023-05-27T07:23:15;25.13;;;23.13;;
18933;SDS011;9599;53.706;10.384;2023-05-27T07:25:50;28.23;;;25.73;;
18933;SDS011;9599;53.706;10.384;2023-05-27T07:28:21;32.57;;;30.13;;
18933;SDS011;9599;53.706;10.384;2023-05-27T07:30:57;28.33;;;26.03;;
18933;SDS011;9599;53.706;10.384;2023-05-27T07:33:26;29.13;;;26.43;;
18933;SDS011;9599;53.706;10.384;2023-05-27T07:35:55;27.33;;;25.10;;
18933;SDS011;9599;53.706;10.384;2023-05-27T07:38:23;28.03;;;25.50;;
18933;SDS011;9599;53.706;10.384;2023-05-27T07:40:51;25.10;;;22.77;;
18933;SDS011;9599;53.706;10.384;2023-05-27T07:43:19;26.10;;;23.97;;
18933;SDS011;9599;53.706;10.384;2023-05-27T07:45:47;25.20;;;22.90;;
18933;SDS011;9599;53.706;10.384;2023-05-27T07:48:15;25.83;;;23.73;;
18933;SDS011;9599;53.706;10.384;2023-05-27T07:50:43;24.87;;;22.57;;
18933;SDS011;9599;53.706;10.384;2023-05-27T07:53:17;25.67;;;23.77;;
18933;SDS011;9599;53.706;10.384;2023-05-27T07:55:45;26.10;;;23.97;;
18933;SDS011;9599;53.706;10.384;2023-05-27T07:58:14;26.63;;;24.50;;
18933;SDS011;9599;53.706;10.384;2023-05-27T08:00:54;25.90;;;23.67;;
18933;SDS011;9599;53.706;10.384;2023-05-27T08:03:22;28.70;;;26.43;;
18933;SDS011;9599;53.706;10.384;2023-05-27T08:06:04;29.13;;;26.80;;
18933;SDS011;9599;53.706;10.384;2023-05-27T08:08:55;28.83;;;26.67;;
18933;SDS011;9599;53.706;10.384;2023-05-27T08:11:37;29.13;;;26.37;;
18933;SDS011;9599;53.706;10.384;2023-05-27T08:14:05;28.83;;;26.63;;
18933;SDS011;9599;53.706;10.384;2023-05-27T08:16:53;28.50;;;26.30;;
18933;SDS011;9599;53.706;10.384;2023-05-27T08:19:40;29.47;;;27.00;;
18933;SDS011;9599;53.706;10.384;2023-05-27T08:22:19;29.27;;;27.10;;
18933;SDS011;9599;53.706;10.384;2023-05-27T08:25:07;29.87;;;27.63;;
18933;SDS011;9599;53.706;10.384;2023-05-27T08:27:54;27.63;;;25.20;;
18933;SDS011;9599;53.706;10.384;2023-05-27T08:30:46;27.70;;;25.60;;
18933;SDS011;9599;53.706;10.384;2023-05-27T08:33:30;30.27;;;27.63;;
18933;SDS011;9599;53.706;10.384;2023-05-27T08:35:58;29.23;;;26.93;;
18933;SDS011;9599;53.706;10.384;2023-05-27T08:38:27;29.77;;;27.67;;
18933;SDS011;9599;53.706;10.384;2023-05-27T08:41:10;29.67;;;27.40;;
18933;SDS011;9599;53.706;10.384;2023-05-27T08:43:38;30.03;;;27.77;;
18933;SDS011;9599;53.706;10.384;2023-05-27T08:46:06;27.87;;;25.57;;
18933;SDS011;9599;53.706;10.384;2023-05-27T08:48:36;28.60;;;26.63;;
18933;SDS011;9599;53.706;10.384;2023-05-27T08:51:04;28.33;;;26.40;;
18933;SDS011;9599;53.706;10.384;2023-05-27T08:53:33;27.70;;;25.57;;
18933;SDS011;9599;53.706;10.384;2023-05-27T08:56:01;28.47;;;26.37;;
18933;SDS011;9599;53.706;10.384;2023-05-27T08:58:35;29.20;;;26.93;;
18933;SDS011;9599;53.706;10.384;2023-05-27T09:01:04;30.57;;;28.00;;
18933;SDS011;9599;53.706;10.384;2023-05-27T09:03:33;31.77;;;29.13;;
18933;SDS011;9599;53.706;10.384;2023-05-27T09:06:01;30.30;;;28.03;;
18933;SDS011;9599;53.706;10.384;2023-05-27T09:08:30;32.50;;;30.00;;
18933;SDS011;9599;53.706;10.384;2023-05-27T09:11:19;29.53;;;27.23;;
18933;SDS011;9599;53.706;10.384;2023-05-27T09:13:50;29.50;;;27.27;;
18933;SDS011;9599;53.706;10.384;2023-05-27T09:16:21;29.20;;;26.80;;
18933;SDS011;9599;53.706;10.384;2023-05-27T09:18:49;31.53;;;28.43;;
18933;SDS011;9599;53.706;10.384;2023-05-27T09:21:18;31.80;;;29.43;;
18933;SDS011;9599;53.706;10.384;2023-05-27T09:23:46;32.57;;;30.17;;
18933;SDS011;9599;53.706;10.384;2023-05-27T09:26:14;32.07;;;29.67;;
18933;SDS011;9599;53.706;10.384;2023-05-27T09:28:41;32.47;;;29.87;;
18933;SDS011;9599;53.706;10.384;2023-05-27T09:31:11;35.27;;;32.50;;
18933;SDS011;9599;53.706;10.384;2023-05-27T09:33:39;36.57;;;33.80;;
18933;SDS011;9599;53.706;10.384;2023-05-27T09:36:08;34.63;;;32.43;;
18933;SDS011;9599;53.706;10.384;2023-05-27T09:38:37;35.50;;;32.93;;
18933;SDS011;9599;53.706;10.384;2023-05-27T09:41:05;34.37;;;31.60;;
18933;SDS011;9599;53.706;10.384;2023-05-27T09:43:33;36.83;;;34.43;;
18933;SDS011;9599;53.706;10.384;2023-05-27T09:46:12;38.30;;;35.23;;
18933;SDS011;9599;53.706;10.384;2023-05-27T09:48:43;38.50;;;35.90;;
18933;SDS011;9599;53.706;10.384;2023-05-27T09:51:11;34.87;;;32.17;;
18933;SDS011;9599;53.706;10.384;2023-05-27T09:53:40;35.83;;;33.23;;
18933;SDS011;9599;53.706;10.384;2023-05-27T09:56:08;35.37;;;32.77;;
18933;SDS011;9599;53.706;10.384;2023-05-27T09:58:36;35.00;;;32.57;;
18933;SDS011;9599;53.706;10.384;2023-05-27T10:01:04;31.70;;;29.60;;
18933;SDS011;9599;53.706;10.384;2023-05-27T10:03:34;33.93;;;31.40;;
18933;SDS011;9599;53.706;10.384;2023-05-27T10:06:04;31.90;;;29.70;;
18933;SDS011;9599;53.706;10.384;2023-05-27T10:08:32;33.97;;;31.47;;
18933;SDS011;9599;53.706;10.384;2023-05-27T10:11:00;32.83;;;30.60;;
18933;SDS011;9599;53.706;10.384;2023-05-27T10:13:29;33.47;;;31.23;;
18933;SDS011;9599;53.706;10.384;2023-05-27T10:15:57;37.80;;;35.35;;
18933;SDS011;9599;53.706;10.384;2023-05-27T10:18:25;33.67;;;30.87;;
18933;SDS011;9599;53.706;10.384;2023-05-27T10:20:57;32.07;;;29.87;;
18933;SDS011;9599;53.706;10.384;2023-05-27T10:23:28;31.13;;;29.03;;
18933;SDS011;9599;53.706;10.384;2023-05-27T10:26:01;31.30;;;29.00;;
18933;SDS011;9599;53.706;10.384;2023-05-27T10:28:33;32.57;;;30.20;;
18933;SDS011;9599;53.706;10.384;2023-05-27T10:31:03;33.03;;;30.53;;
18933;SDS011;9599;53.706;10.384;2023-05-27T10:33:34;32.90;;;30.60;;
18933;SDS011;9599;53.706;10.384;2023-05-27T10:36:05;33.00;;;30.30;;
18933;SDS011;9599;53.706;10.384;2023-05-27T10:38:35;32.73;;;30.23;;
18933;SDS011;9599;53.706;10.384;2023-05-27T10:41:04;32.53;;;30.20;;
18933;SDS011;9599;53.706;10.384;2023-05-27T10:43:34;29.87;;;27.67;;
18933;SDS011;9599;53.706;10.384;2023-05-27T10:46:03;29.57;;;27.67;;
18933;SDS011;9599;53.706;10.384;2023-05-27T10:48:34;30.10;;;27.87;;
18933;SDS011;9599;53.706;10.384;2023-05-27T10:51:04;29.97;;;27.93;;
18933;SDS011;9599;53.706;10.384;2023-05-27T10:53:34;31.73;;;29.63;;
18933;SDS011;9599;53.706;10.384;2023-05-27T10:56:03;30.77;;;28.77;;
18933;SDS011;9599;53.706;10.384;2023-05-27T10:58:33;28.97;;;26.97;;
18933;SDS011;9599;53.706;10.384;2023-05-27T11:01:03;31.40;;;29.00;;
18933;SDS011;9599;53.706;10.384;2023-05-27T11:03:40;32.37;;;29.87;;
18933;SDS011;9599;53.706;10.384;2023-05-27T11:06:11;32.37;;;30.13;;
18933;SDS011;9599;53.706;10.384;2023-05-27T11:08:40;33.33;;;30.93;;
18933;SDS011;9599;53.706;10.384;2023-05-27T11:11:08;32.23;;;30.13;;
18933;SDS011;9599;53.706;10.384;2023-05-27T11:13:38;31.43;;;29.33;;
18933;SDS011;9599;53.706;10.384;2023-05-27T11:16:12;33.03;;;30.67;;
18933;SDS011;9599;53.706;10.384;2023-05-27T11:18:42;32.63;;;30.23;;
18933;SDS011;9599;53.706;10.384;2023-05-27T11:21:13;31.73;;;29.53;;
18933;SDS011;9599;53.706;10.384;2023-05-27T11:23:42;32.87;;;30.77;;
18933;SDS011;9599;53.706;10.384;2023-05-27T11:26:15;31.90;;;29.67;;
18933;SDS011;9599;53.706;10.384;2023-05-27T11:28:47;31.17;;;29.03;;
18933;SDS011;9599;53.706;10.384;2023-05-27T11:31:17;31.40;;;29.03;;
18933;SDS011;9599;53.706;10.384;2023-05-27T11:33:46;31.40;;;29.40;;
18933;SDS011;9599;53.706;10.384;2023-05-27T11:36:18;30.73;;;28.43;;
18933;SDS011;9599;53.706;10.384;2023-05-27T11:38:51;33.67;;;31.03;;
18933;SDS011;9599;53.706;10.384;2023-05-27T11:41:20;35.93;;;33.13;;
18933;SDS011;9599;53.706;10.384;2023-05-27T11:43:50;34.77;;;32.17;;
18933;SDS011;9599;53.706;10.384;2023-05-27T11:46:19;32.23;;;29.90;;
18933;SDS011;9599;53.706;10.384;2023-05-27T11:48:48;29.20;;;26.57;;
18933;SDS011;9599;53.706;10.384;2023-05-27T11:51:17;30.47;;;28.47;;
18933;SDS011;9599;53.706;10.384;2023-05-27T11:53:45;29.50;;;27.17;;
18933;SDS011;9599;53.706;10.384;2023-05-27T11:56:14;31.07;;;28.53;;
18933;SDS011;9599;53.706;10.384;2023-05-27T11:58:42;30.37;;;28.27;;
18933;SDS011;9599;53.706;10.384;2023-05-27T12:01:10;34.63;;;32.40;;
18933;SDS011;9599;53.706;10.384;2023-05-27T12:03:38;38.07;;;35.60;;
18933;SDS011;9599;53.706;10.384;2023-05-27T12:06:07;35.17;;;32.63;;
18933;SDS011;9599;53.706;10.384;2023-05-27T12:08:37;33.33;;;31.33;;
18933;SDS011;9599;53.706;10.384;2023-05-27T12:11:05;32.83;;;30.53;;
18933;SDS011;9599;53.706;10.384;2023-05-27T12:13:33;33.97;;;31.63;;
18933;SDS011;9599;53.706;10.384;2023-05-27T12:16:01;34.83;;;32.47;;
18933;SDS011;9599;53.706;10.384;2023-05-27T12:18:30;32.97;;;30.80;;
18933;SDS011;9599;53.706;10.384;2023-05-27T12:20:58;34.23;;;31.73;;
18933;SDS011;9599;53.706;10.384;2023-05-27T12:23:26;36.20;;;33.83;;
18933;SDS011;9599;53.706;10.384;2023-05-27T12:25:55;34.70;;;32.47;;
18933;SDS011;9599;53.706;10.384;2023-05-27T12:28:23;32.53;;;30.37;;
18933;SDS011;9599;53.706;10.384;2023-05-27T12:30:53;34.60;;;32.00;;
18933;SDS011;9599;53.706;10.384;2023-05-27T12:33:22;35.60;;;33.33;;
18933;SDS011;9599;53.706;10.384;2023-05-27T12:35:50;35.67;;;33.43;;
18933;SDS011;9599;53.706;10.384;2023-05-27T12:38:18;35.23;;;32.90;;
18933;SDS011;9599;53.706;10.384;2023-05-27T12:40:46;30.70;;;28.47;;
18933;SDS011;9599;53.706;10.384;2023-05-27T12:43:16;30.93;;;28.77;;
18933;SDS011;9599;53.706;10.384;2023-05-27T12:45:45;34.07;;;31.63;;
18933;SDS011;9599;53.706;10.384;2023-05-27T12:48:14;29.50;;;27.40;;
18933;SDS011;9599;53.706;10.384;2023-05-27T12:50:44;27.73;;;25.83;;
18933;SDS011;9599;53.706;10.384;2023-05-27T12:53:12;29.33;;;27.33;;
18933;SDS011;9599;53.706;10.384;2023-05-27T12:55:42;28.77;;;26.73;;
18933;SDS011;9599;53.706;10.384;2023-05-27T12:58:11;29.10;;;27.33;;
18933;SDS011;9599;53.706;10.384;2023-05-27T13:00:41;30.60;;;28.20;;
18933;SDS011;9599;53.706;10.384;2023-05-27T13:03:10;31.37;;;29.33;;
18933;SDS011;9599;53.706;10.384;2023-05-27T13:05:38;31.60;;;29.33;;
18933;SDS011;9599;53.706;10.384;2023-05-27T13:08:06;33.97;;;31.77;;
18933;SDS011;9599;53.706;10.384;2023-05-27T13:10:34;33.07;;;30.67;;
18933;SDS011;9599;53.706;10.384;2023-05-27T13:13:02;34.20;;;31.90;;
18933;SDS011;9599;53.706;10.384;2023-05-27T13:15:30;33.73;;;31.43;;
18933;SDS011;9599;53.706;10.384;2023-05-27T13:18:00;33.40;;;31.30;;
18933;SDS011;9599;53.706;10.384;2023-05-27T13:20:29;33.37;;;31.07;;
18933;SDS011;9599;53.706;10.384;2023-05-27T13:22:57;33.50;;;31.07;;
18933;SDS011;9599;53.706;10.384;2023-05-27T13:25:27;33.63;;;31.40;;
18933;SDS011;9599;53.706;10.384;2023-05-27T13:27:56;35.07;;;32.70;;
18933;SDS011;9599;53.706;10.384;2023-05-27T13:30:25;35.57;;;33.27;;
18933;SDS011;9599;53.706;10.384;2023-05-27T13:32:53;33.40;;;31.00;;
18933;SDS011;9599;53.706;10.384;2023-05-27T13:35:23;33.77;;;31.60;;
18933;SDS011;9599;53.706;10.384;2023-05-27T13:37:51;33.90;;;31.70;;
18933;SDS011;9599;53.706;10.384;2023-05-27T13:40:20;35.90;;;33.37;;
18933;SDS011;9599;53.706;10.384;2023-05-27T13:42:48;34.57;;;32.37;;
18933;SDS011;9599;53.706;10.384;2023-05-27T13:45:16;33.67;;;31.47;;
18933;SDS011;9599;53.706;10.384;2023-05-27T13:47:44;33.23;;;31.03;;
18933;SDS011;9599;53.706;10.384;2023-05-27T13:50:12;33.07;;;30.83;;
18933;SDS011;9599;53.706;10.384;2023-05-27T13:52:42;30.80;;;28.73;;
18933;SDS011;9599;53.706;10.384;2023-05-27T13:55:11;28.87;;;27.00;;
18933;SDS011;9599;53.706;10.384;2023-05-27T13:57:39;29.37;;;27.27;;
18933;SDS011;9599;53.706;10.384;2023-05-27T14:00:07;30.37;;;28.27;;
18933;SDS011;9599;53.706;10.384;2023-05-27T14:02:36;30.70;;;28.77;;
18933;SDS011;9599;53.706;10.384;2023-05-27T14:05:04;32.53;;;30.07;;
18933;SDS011;9599;53.706;10.384;2023-05-27T14:07:38;34.00;;;31.77;;
18933;SDS011;9599;53.706;10.384;2023-05-27T14:10:08;32.57;;;29.77;;
18933;SDS011;9599;53.706;10.384;2023-05-27T14:12:37;28.67;;;26.80;;
18933;SDS011;9599;53.706;10.384;2023-05-27T14:15:05;27.60;;;25.63;;
18933;SDS011;9599;53.706;10.384;2023-05-27T14:17:34;29.03;;;27.13;;
18933;SDS011;9599;53.706;10.384;2023-05-27T14:20:02;30.20;;;28.20;;
18933;SDS011;9599;53.706;10.384;2023-05-27T14:22:31;30.40;;;28.30;;
18933;SDS011;9599;53.706;10.384;2023-05-27T14:24:59;29.20;;;27.17;;
18933;SDS011;9599;53.706;10.384;2023-05-27T14:27:28;29.17;;;27.17;;
18933;SDS011;9599;53.706;10.384;2023-05-27T14:29:56;31.60;;;29.20;;
18933;SDS011;9599;53.706;10.384;2023-05-27T14:32:24;30.53;;;28.57;;
18933;SDS011;9599;53.706;10.384;2023-05-27T14:34:53;31.63;;;29.47;;
18933;SDS011;9599;53.706;10.384;2023-05-27T14:37:22;33.87;;;31.87;;
18933;SDS011;9599;53.706;10.384;2023-05-27T14:39:50;31.00;;;29.00;;